createdAt,value
2019-01-03T00:00:02.061Z,96925.62
2019-01-03T00:02:50.152Z,96937.62
2019-01-03T00:05:40.536Z,96928.69
2019-01-03T00:08:26.578Z,96929.91
2019-01-03T00:11:35.305Z,96924.89
2019-01-03T00:14:24.259Z,96926.95
2019-01-03T00:17:12.942Z,96935.74
2019-01-03T00:20:03.309Z,96941.95
2019-01-03T00:23:02.949Z,96947.95
2019-01-03T00:25:56.008Z,96953.85
2019-01-03T00:28:44.087Z,96962.33
2019-01-03T00:31:39.289Z,96960.17
2019-01-03T00:34:28.987Z,96954.11
2019-01-03T00:37:26.139Z,96959.91
2019-01-03T00:40:14.649Z,96972.13
2019-01-03T00:43:08.196Z,96977.78
2019-01-03T00:45:57.244Z,96973.30
2019-01-03T00:48:51.957Z,96969.90
2019-01-03T00:51:40.959Z,96976.81
2019-01-03T00:54:32.359Z,96981.09
2019-01-03T00:57:21.026Z,96988.11
2019-01-03T01:00:11.130Z,96988.51
2019-01-03T01:03:01.439Z,97004.34
2019-01-03T01:06:03.145Z,96996.08
2019-01-03T01:08:53.458Z,97006.27
2019-01-03T01:12:04.385Z,97004.22
2019-01-03T01:15:09.641Z,97006.35
2019-01-03T01:18:17.804Z,97011.00
2019-01-03T01:21:26.343Z,97007.00
2019-01-03T01:24:22.483Z,97017.15
2019-01-03T01:27:12.713Z,97022.17
2019-01-03T01:30:13.871Z,97022.55
2019-01-03T01:33:08.917Z,97030.20
2019-01-03T01:36:02.117Z,97040.30
2019-01-03T01:38:58.603Z,97048.09
2019-01-03T01:42:00.985Z,97048.47
2019-01-03T01:45:09.311Z,97043.34
2019-01-03T01:48:17.923Z,97044.77
2019-01-03T01:51:17.287Z,97038.48
2019-01-03T01:54:07.609Z,97039.29
2019-01-03T01:57:12.875Z,97040.07
2019-01-03T01:59:57.867Z,97038.52
2019-01-03T02:03:00.042Z,97040.45
2019-01-03T02:05:45.421Z,97047.36
2019-01-03T02:08:40.017Z,97042.80
2019-01-03T02:11:33.863Z,97043.69
2019-01-03T02:14:32.807Z,97053.67
2019-01-03T02:17:21.663Z,97053.30
2019-01-03T02:20:10.571Z,97057.55
2019-01-03T02:22:59.576Z,97061.20
2019-01-03T02:25:43.578Z,97057.72
2019-01-03T02:28:36.941Z,97061.30
2019-01-03T02:31:27.244Z,97058.94
2019-01-03T02:34:15.842Z,97052.42
2019-01-03T02:37:06.145Z,97051.27
2019-01-03T02:39:59.252Z,97054.86
2019-01-03T02:42:55.501Z,97055.06
2019-01-03T02:45:48.639Z,97054.19
2019-01-03T02:48:45.301Z,97050.30
2019-01-03T02:51:50.860Z,97058.02
2019-01-03T02:54:47.033Z,97056.63
2019-01-03T02:57:35.799Z,97057.55
2019-01-03T03:00:38.126Z,97059.83
2019-01-03T03:03:26.983Z,97059.22
2019-01-03T03:06:36.199Z,97060.88
2019-01-03T03:09:30.271Z,97061.12
2019-01-03T03:12:19.279Z,97053.27
2019-01-03T03:15:18.810Z,97055.44
2019-01-03T03:18:17.915Z,97057.55
2019-01-03T03:21:08.241Z,97057.33
2019-01-03T03:23:57.132Z,97058.64
2019-01-03T03:26:45.781Z,97062.73
2019-01-03T03:29:34.712Z,97065.13
2019-01-03T03:32:43.315Z,97068.80
2019-01-03T03:35:31.956Z,97065.20
2019-01-03T03:38:20.939Z,97060.66
2019-01-03T03:41:20.161Z,97059.40
2019-01-03T03:44:09.032Z,97056.09
2019-01-03T03:47:09.735Z,97058.10
2019-01-03T03:50:08.941Z,97060.47
2019-01-03T03:52:57.751Z,97057.72
2019-01-03T03:55:53.957Z,97057.06
2019-01-03T03:58:42.718Z,97055.97
2019-01-03T04:01:35.885Z,97055.30
2019-01-03T04:04:45.235Z,97051.44
2019-01-03T04:07:33.980Z,97052.05
2019-01-03T04:10:23.502Z,97056.94
2019-01-03T04:13:08.027Z,97058.00
2019-01-03T04:16:00.326Z,97058.38
2019-01-03T04:18:50.641Z,97054.24
2019-01-03T04:21:39.316Z,97053.01
2019-01-03T04:24:26.619Z,97044.58
2019-01-03T04:27:16.946Z,97046.31
2019-01-03T04:30:09.937Z,97039.70
2019-01-03T04:32:58.842Z,97036.92
2019-01-03T04:36:07.095Z,97038.25
2019-01-03T04:39:06.528Z,97029.72
2019-01-03T04:42:05.887Z,97023.34
2019-01-03T04:44:54.486Z,97029.69
2019-01-03T04:47:43.133Z,97021.87
2019-01-03T04:50:36.420Z,97021.73
2019-01-03T04:53:24.524Z,97019.50
2019-01-03T04:56:17.680Z,97013.73
2019-01-03T04:59:20.144Z,97013.59
2019-01-03T05:02:09.786Z,97021.75
2019-01-03T05:04:58.762Z,97018.38
2019-01-03T05:07:43.612Z,97026.97
2019-01-03T05:10:29.602Z,97038.23
2019-01-03T05:13:19.920Z,97042.41
2019-01-03T05:16:13.010Z,97041.54
2019-01-03T05:19:21.208Z,97040.94
2019-01-03T05:22:10.210Z,97045.05
2019-01-03T05:25:15.473Z,97052.37
2019-01-03T05:28:05.775Z,97055.59
2019-01-03T05:31:04.052Z,97056.69
2019-01-03T05:33:59.163Z,97067.59
2019-01-03T05:36:58.251Z,97070.06
2019-01-03T05:39:51.364Z,97071.05
2019-01-03T05:42:47.280Z,97070.53
2019-01-03T05:45:49.545Z,97070.06
2019-01-03T05:48:45.652Z,97070.80
2019-01-03T05:51:53.928Z,97081.86
2019-01-03T05:54:59.482Z,97085.77
2019-01-03T05:57:58.622Z,97079.94
2019-01-03T06:01:06.904Z,97084.11
2019-01-03T06:03:49.548Z,97084.41
2019-01-03T06:06:39.864Z,97091.30
2019-01-03T06:09:28.458Z,97100.70
2019-01-03T06:12:29.898Z,97103.74
2019-01-03T06:15:18.578Z,97109.14
2019-01-03T06:18:07.437Z,97108.56
2019-01-03T06:20:56.182Z,97106.27
2019-01-03T06:23:49.477Z,97102.63
2019-01-03T06:26:38.344Z,97107.81
2019-01-03T06:29:31.558Z,97106.96
2019-01-03T06:32:20.637Z,97109.61
2019-01-03T06:35:23.186Z,97108.70
2019-01-03T06:38:12.762Z,97113.71
2019-01-03T06:41:09.116Z,97110.88
2019-01-03T06:44:02.219Z,97117.27
2019-01-03T06:47:05.877Z,97116.43
2019-01-03T06:50:05.258Z,97119.13
2019-01-03T06:53:07.696Z,97119.55
2019-01-03T06:55:54.870Z,97118.58
2019-01-03T06:58:45.178Z,97128.96
2019-01-03T07:01:44.833Z,97130.23
2019-01-03T07:04:44.186Z,97135.91
2019-01-03T07:07:32.808Z,97134.22
2019-01-03T07:10:21.855Z,97140.93
2019-01-03T07:13:18.260Z,97142.97
2019-01-03T07:16:07.230Z,97151.44
2019-01-03T07:19:12.729Z,97156.91
2019-01-03T07:22:01.788Z,97147.55
2019-01-03T07:25:04.300Z,97159.02
2019-01-03T07:27:53.032Z,97158.75
2019-01-03T07:30:46.119Z,97162.99
2019-01-03T07:33:51.582Z,97166.33
2019-01-03T07:36:40.316Z,97158.68
2019-01-03T07:39:26.934Z,97153.11
2019-01-03T07:42:20.081Z,97154.00
2019-01-03T07:45:13.448Z,97154.91
2019-01-03T07:48:02.409Z,97155.82
2019-01-03T07:50:51.436Z,97158.78
2019-01-03T07:53:50.812Z,97159.48
2019-01-03T07:56:44.292Z,97164.27
2019-01-03T07:59:35.375Z,97163.12
2019-01-03T08:02:37.600Z,97165.13
2019-01-03T08:05:32.113Z,97176.47
2019-01-03T08:08:25.260Z,97179.48
2019-01-03T08:11:14.344Z,97176.38
2019-01-03T08:14:13.551Z,97176.14
2019-01-03T08:17:02.356Z,97178.81
2019-01-03T08:19:51.151Z,97178.47
2019-01-03T08:22:39.871Z,97170.13
2019-01-03T08:25:24.512Z,97171.33
2019-01-03T08:28:15.396Z,97165.25
2019-01-03T08:31:08.115Z,97172.61
2019-01-03T08:33:57.138Z,97169.64
2019-01-03T08:36:56.609Z,97166.08
2019-01-03T08:40:04.894Z,97174.73
2019-01-03T08:42:55.206Z,97182.31
2019-01-03T08:45:56.972Z,97176.51
2019-01-03T08:48:46.025Z,97182.41
2019-01-03T08:51:35.019Z,97188.70
2019-01-03T08:54:40.620Z,97181.97
2019-01-03T08:57:40.069Z,97187.63
2019-01-03T09:00:30.574Z,97184.12
2019-01-03T09:03:19.796Z,97187.88
2019-01-03T09:06:08.691Z,97183.50
2019-01-03T09:08:57.689Z,97173.92
2019-01-03T09:11:56.790Z,97179.88
2019-01-03T09:14:45.499Z,97185.39
2019-01-03T09:17:47.811Z,97180.86
2019-01-03T09:20:33.114Z,97183.02
2019-01-03T09:23:26.563Z,97196.91
2019-01-03T09:26:28.870Z,97196.03
2019-01-03T09:29:12.877Z,97199.33
2019-01-03T09:32:01.847Z,97200.41
2019-01-03T09:35:04.206Z,97195.87
2019-01-03T09:37:52.553Z,97201.27
2019-01-03T09:40:45.766Z,97195.30
2019-01-03T09:43:39.143Z,97202.23
2019-01-03T09:46:10.615Z,97199.94
2019-01-03T09:48:42.071Z,97194.03
2019-01-03T09:51:13.529Z,97190.31
2019-01-03T09:53:45.150Z,97192.53
2019-01-03T09:56:16.598Z,97196.61
2019-01-03T09:58:48.055Z,97191.78
2019-01-03T10:01:19.557Z,97189.06
2019-01-03T10:03:51.037Z,97184.81
2019-01-03T10:06:22.466Z,97187.04
2019-01-03T10:08:53.870Z,97177.16
2019-01-03T10:11:25.411Z,97173.64
2019-01-03T10:13:56.907Z,97161.11
2019-01-03T10:16:28.345Z,97170.02
2019-01-03T10:18:59.935Z,97176.45
2019-01-03T10:21:31.621Z,97169.75
2019-01-03T10:24:03.016Z,97166.27
2019-01-03T10:26:34.528Z,97166.94
2019-01-03T10:29:05.997Z,97165.77
2019-01-03T10:31:37.421Z,97160.39
2019-01-03T10:34:08.834Z,97175.30
2019-01-03T10:36:40.379Z,97164.89
2019-01-03T10:39:11.814Z,97162.70
2019-01-03T10:41:43.267Z,97163.19
2019-01-03T10:44:14.683Z,97163.84
2019-01-03T10:46:46.151Z,97149.42
2019-01-03T10:49:17.586Z,97147.94
2019-01-03T10:51:49.041Z,97140.30
2019-01-03T10:54:20.504Z,97141.61
2019-01-03T10:56:51.940Z,97131.64
2019-01-03T10:59:23.359Z,97128.73
2019-01-03T11:01:54.830Z,97126.05
2019-01-03T11:04:26.288Z,97128.23
2019-01-03T11:06:57.766Z,97127.38
2019-01-03T11:09:30.859Z,97117.68
2019-01-03T11:12:02.340Z,97109.59
2019-01-03T11:14:33.800Z,97109.38
2019-01-03T11:17:05.305Z,97103.30
2019-01-03T11:19:36.739Z,97099.11
2019-01-03T11:22:08.216Z,97093.83
2019-01-03T11:24:39.598Z,97089.40
2019-01-03T11:27:11.086Z,97079.86
2019-01-03T11:29:42.580Z,97084.00
2019-01-03T11:32:14.139Z,97091.24
2019-01-03T11:34:47.326Z,97083.67
2019-01-03T11:37:18.846Z,97080.49
2019-01-03T11:39:50.294Z,97080.25
2019-01-03T11:42:21.734Z,97070.96
2019-01-03T11:44:53.156Z,97072.17
2019-01-03T11:47:24.630Z,97069.66
2019-01-03T11:49:56.114Z,97063.59
2019-01-03T11:52:27.561Z,97061.17
2019-01-03T11:54:58.998Z,97059.59
2019-01-03T11:57:30.472Z,97057.01
2019-01-03T12:00:01.901Z,97048.47
2019-01-03T12:02:33.406Z,97043.03
2019-01-03T12:05:04.935Z,97034.67
2019-01-03T12:07:36.480Z,97031.94
2019-01-03T12:10:07.979Z,97030.38
2019-01-03T12:12:39.515Z,97032.02
2019-01-03T12:15:11.289Z,97019.54
2019-01-03T12:17:42.776Z,97018.88
2019-01-03T12:20:14.263Z,97015.88
2019-01-03T12:22:45.705Z,97010.51
2019-01-03T12:25:17.172Z,97008.63
2019-01-03T12:27:48.807Z,97005.92
2019-01-03T12:30:20.272Z,97002.90
2019-01-03T12:32:51.720Z,97004.22
2019-01-03T12:35:23.170Z,97001.59
2019-01-03T12:37:54.634Z,97003.96
2019-01-03T12:40:26.076Z,97003.05
2019-01-03T12:42:57.614Z,97007.64
2019-01-03T12:45:29.127Z,97012.03
2019-01-03T12:48:00.556Z,97009.51
2019-01-03T12:50:33.639Z,97012.06
2019-01-03T12:53:05.194Z,97012.45
2019-01-03T12:55:36.656Z,97006.27
2019-01-03T12:58:08.165Z,97010.55
2019-01-03T13:00:39.518Z,97011.27
2019-01-03T13:03:11.070Z,97015.53
2019-01-03T13:05:42.548Z,97012.61
2019-01-03T13:08:13.982Z,97011.88
2019-01-03T13:10:45.435Z,97021.52
2019-01-03T13:13:16.917Z,97017.03
2019-01-03T13:15:48.342Z,97017.67
2019-01-03T13:18:19.847Z,97013.77
2019-01-03T13:20:51.774Z,97014.72
2019-01-03T13:23:23.313Z,97013.89
2019-01-03T13:25:54.765Z,97010.03
2019-01-03T13:28:26.264Z,97006.27
2019-01-03T13:30:57.770Z,96994.86
2019-01-03T13:33:29.265Z,97002.00
2019-01-03T13:36:00.729Z,96996.42
2019-01-03T13:38:32.305Z,96996.95
2019-01-03T13:41:03.721Z,96992.39
2019-01-03T13:43:35.199Z,96995.62
2019-01-03T13:46:06.646Z,96997.01
2019-01-03T13:48:38.163Z,96992.39
2019-01-03T13:51:09.614Z,96990.27
2019-01-03T13:53:41.155Z,96990.66
2019-01-03T13:56:12.604Z,96989.68
2019-01-03T13:58:44.065Z,96994.92
2019-01-03T14:01:15.547Z,97009.67
2019-01-03T14:03:47.056Z,97008.09
2019-01-03T14:06:18.504Z,97006.85
2019-01-03T14:08:49.878Z,97004.53
2019-01-03T14:11:21.361Z,97012.25
2019-01-03T14:13:52.839Z,97009.20
2019-01-03T14:16:24.370Z,97012.84
2019-01-03T14:18:55.882Z,97018.05
2019-01-03T14:21:27.353Z,97021.71
2019-01-03T14:23:58.823Z,97025.17
2019-01-03T14:26:30.345Z,97025.17
2019-01-03T14:29:01.841Z,97018.09
2019-01-03T14:31:33.367Z,97018.59
2019-01-03T14:34:04.873Z,97016.02
2019-01-03T14:36:36.314Z,97018.58
2019-01-03T14:39:08.813Z,97019.77
2019-01-03T14:41:40.266Z,97015.94
2019-01-03T14:44:11.718Z,97017.16
2019-01-03T14:46:43.183Z,97015.56
2019-01-03T14:49:14.718Z,97019.42
2019-01-03T14:51:46.144Z,97010.19
2019-01-03T14:54:17.647Z,97012.47
2019-01-03T14:56:49.145Z,97003.95
2019-01-03T14:59:20.626Z,97010.95
2019-01-03T15:01:52.156Z,97013.50
2019-01-03T15:04:23.623Z,97004.59
2019-01-03T15:06:55.145Z,97013.25
2019-01-03T15:09:26.675Z,97012.41
2019-01-03T15:11:58.161Z,97015.69
2019-01-03T15:14:29.631Z,97014.69
2019-01-03T15:17:01.114Z,97015.05
2019-01-03T15:19:32.608Z,97015.63
2019-01-03T15:22:04.049Z,97017.27
2019-01-03T15:24:35.508Z,97018.61
2019-01-03T15:27:06.949Z,97020.70
2019-01-03T15:29:38.443Z,97017.51
2019-01-03T15:32:09.875Z,97015.72
2019-01-03T15:34:41.299Z,97020.33
2019-01-03T15:37:12.719Z,97022.25
2019-01-03T15:39:44.204Z,97020.03
2019-01-03T15:42:15.626Z,97015.32
2019-01-03T15:44:47.184Z,97026.05
2019-01-03T15:47:18.673Z,97030.73
2019-01-03T15:49:52.561Z,97027.64
2019-01-03T15:52:24.009Z,97021.52
2019-01-03T15:54:55.458Z,97020.49
2019-01-03T15:57:26.921Z,97022.14
2019-01-03T15:59:58.376Z,97014.02
2019-01-03T16:02:29.716Z,97011.02
2019-01-03T16:05:01.159Z,97012.80
2019-01-03T16:07:34.983Z,97011.97
2019-01-03T16:10:06.906Z,96997.43
2019-01-03T16:12:38.350Z,96999.33
2019-01-03T16:15:09.844Z,97002.16
2019-01-03T16:17:41.225Z,96999.08
2019-01-03T16:20:12.695Z,96994.11
2019-01-03T16:22:44.240Z,96975.84
2019-01-03T16:25:15.719Z,96978.14
2019-01-03T16:27:47.193Z,96982.39
2019-01-03T16:30:18.661Z,96974.63
2019-01-03T16:32:50.127Z,96971.77
2019-01-03T16:35:21.581Z,96977.42
2019-01-03T16:37:53.253Z,96983.77
2019-01-03T16:40:24.739Z,96977.39
2019-01-03T16:42:56.177Z,96980.53
2019-01-03T16:45:27.657Z,96982.73
2019-01-03T16:47:59.096Z,96986.85
2019-01-03T16:50:30.595Z,96987.52
2019-01-03T16:53:02.063Z,96987.55
2019-01-03T16:55:33.487Z,96979.92
2019-01-03T16:58:04.947Z,96982.53
2019-01-03T17:00:36.480Z,96981.40
2019-01-03T17:03:08.038Z,96974.34
2019-01-03T17:05:39.500Z,96986.64
2019-01-03T17:08:11.001Z,96988.08
2019-01-03T17:10:42.547Z,96990.31
2019-01-03T17:13:14.009Z,97004.66
2019-01-03T17:15:45.486Z,97004.39
2019-01-03T17:18:16.877Z,96998.84
2019-01-03T17:20:48.391Z,97003.04
2019-01-03T17:23:19.814Z,97002.56
2019-01-03T17:25:51.330Z,97006.47
2019-01-03T17:28:22.832Z,97001.20
2019-01-03T17:30:55.280Z,97006.25
2019-01-03T17:33:26.730Z,97002.86
2019-01-03T17:35:58.232Z,97006.61
2019-01-03T17:38:29.736Z,96998.27
2019-01-03T17:41:01.627Z,97003.33
2019-01-03T17:43:33.156Z,97000.75
2019-01-03T17:46:04.657Z,97009.12
2019-01-03T17:48:36.106Z,97006.57
2019-01-03T17:51:07.596Z,97006.50
2019-01-03T17:53:40.330Z,97007.56
2019-01-03T17:56:11.817Z,97004.38
2019-01-03T17:58:44.361Z,97008.89
2019-01-03T18:01:15.808Z,97006.29
2019-01-03T18:03:48.231Z,97002.46
2019-01-03T18:06:19.743Z,97007.83
2019-01-03T18:08:51.193Z,97008.14
2019-01-03T18:11:22.780Z,97013.52
2019-01-03T18:13:54.187Z,97019.35
2019-01-03T18:16:25.673Z,97011.50
2019-01-03T18:18:57.147Z,97006.63
2019-01-03T18:21:28.634Z,97010.25
2019-01-03T18:24:00.107Z,97010.80
2019-01-03T18:26:31.597Z,97005.86
2019-01-03T18:29:03.064Z,97003.30
2019-01-03T18:31:34.545Z,97000.17
2019-01-03T18:34:06.033Z,96996.03
2019-01-03T18:36:38.541Z,96996.95
2019-01-03T18:39:09.966Z,96992.66
2019-01-03T18:41:41.436Z,96999.22
2019-01-03T18:44:13.244Z,97005.69
2019-01-03T18:46:44.710Z,97004.05
2019-01-03T18:49:16.177Z,97002.64
2019-01-03T18:51:47.666Z,97009.00
2019-01-03T18:54:19.151Z,97008.56
2019-01-03T18:56:50.633Z,97012.19
2019-01-03T18:59:22.150Z,97009.47
2019-01-03T19:01:53.683Z,97009.00
2019-01-03T19:04:25.236Z,97017.34
2019-01-03T19:06:56.724Z,97008.41
2019-01-03T19:09:28.162Z,97005.02
2019-01-03T19:11:59.662Z,97010.19
2019-01-03T19:14:31.177Z,96999.10
2019-01-03T19:17:02.691Z,97009.71
2019-01-03T19:19:34.128Z,97001.62
2019-01-03T19:22:05.727Z,97004.29
2019-01-03T19:24:37.203Z,97004.20
2019-01-03T19:27:08.726Z,97003.92
2019-01-03T19:29:40.202Z,97001.00
2019-01-03T19:32:11.766Z,96996.63
2019-01-03T19:34:43.260Z,97001.08
2019-01-03T19:37:14.730Z,97003.20
2019-01-03T19:39:46.210Z,97014.39
2019-01-03T19:42:17.720Z,97009.95
2019-01-03T19:44:49.124Z,97007.52
2019-01-03T19:47:20.621Z,97005.53
2019-01-03T19:49:51.940Z,97009.58
2019-01-03T19:52:23.421Z,97004.11
2019-01-03T19:54:54.904Z,97005.59
2019-01-03T19:57:26.414Z,97003.73
2019-01-03T19:59:57.846Z,97001.58
2019-01-03T20:02:29.338Z,97000.57
2019-01-03T20:05:00.770Z,97009.34
2019-01-03T20:07:32.246Z,97003.15
2019-01-03T20:10:03.868Z,97004.39
2019-01-03T20:12:35.369Z,97009.93
2019-01-03T20:15:07.707Z,97006.20
2019-01-03T20:17:39.158Z,97004.03
2019-01-03T20:20:10.983Z,97007.38
2019-01-03T20:22:42.473Z,97006.95
2019-01-03T20:25:14.004Z,97003.63
2019-01-03T20:27:45.521Z,97001.29
2019-01-03T20:30:17.026Z,97000.36
2019-01-03T20:32:48.665Z,97001.53
2019-01-03T20:35:20.149Z,97009.47
2019-01-03T20:37:51.696Z,97014.53
2019-01-03T20:40:24.500Z,97011.52
2019-01-03T20:42:55.956Z,97009.47
2019-01-03T20:45:27.404Z,97023.20
2019-01-03T20:47:58.868Z,97010.78
2019-01-03T20:50:30.330Z,97014.98
2019-01-03T20:53:01.798Z,97011.64
2019-01-03T20:55:33.240Z,97005.20
2019-01-03T20:58:04.704Z,96999.10
2019-01-03T21:00:36.194Z,97008.17
2019-01-03T21:03:07.731Z,96992.23
2019-01-03T21:05:39.236Z,96998.22
2019-01-03T21:08:10.764Z,96990.17
2019-01-03T21:10:42.292Z,96999.83
2019-01-03T21:13:13.761Z,97002.62
2019-01-03T21:15:45.226Z,97011.33
2019-01-03T21:18:16.661Z,97003.78
2019-01-03T21:20:56.734Z,96995.36
2019-01-03T21:23:35.045Z,97008.52
2019-01-03T21:26:13.098Z,97011.73
2019-01-03T21:28:45.364Z,97014.84
2019-01-03T21:31:16.806Z,97023.95
2019-01-03T21:33:48.271Z,97016.30
2019-01-03T21:36:19.752Z,97022.63
2019-01-03T21:38:51.217Z,97017.99
2019-01-03T21:41:22.662Z,97022.02
2019-01-03T21:43:54.147Z,97021.80
2019-01-03T21:46:25.606Z,97018.50
2019-01-03T21:48:57.091Z,97027.76
2019-01-03T21:51:28.633Z,97026.84
2019-01-03T21:54:00.084Z,97027.73
2019-01-03T21:56:31.526Z,97033.48
2019-01-03T21:59:02.976Z,97026.38
2019-01-03T22:01:34.449Z,97032.17
2019-01-03T22:04:05.929Z,97034.23
2019-01-03T22:06:37.353Z,97030.54
2019-01-03T22:09:08.869Z,97034.77
2019-01-03T22:11:40.365Z,97036.23
2019-01-03T22:14:11.864Z,97034.05
2019-01-03T22:16:43.286Z,97035.78
2019-01-03T22:19:14.765Z,97027.56
2019-01-03T22:21:46.193Z,97030.85
2019-01-03T22:24:17.696Z,97038.91
2019-01-03T22:26:50.282Z,97030.71
2019-01-03T22:29:21.738Z,97028.18
2019-01-03T22:31:53.089Z,97029.19
2019-01-03T22:34:24.581Z,97035.33
2019-01-03T22:36:56.021Z,97035.78
2019-01-03T22:39:27.493Z,97032.22
2019-01-03T22:42:00.539Z,97036.19
2019-01-03T22:44:32.007Z,97041.18
2019-01-03T22:47:03.451Z,97037.78
2019-01-03T22:49:34.907Z,97029.65
2019-01-03T22:52:06.502Z,97028.46
2019-01-03T22:54:37.990Z,97032.55
2019-01-03T22:57:09.429Z,97040.89
2019-01-03T22:59:40.873Z,97037.34
2019-01-03T23:02:12.234Z,97035.42
2019-01-03T23:04:48.959Z,97032.06
2019-01-03T23:07:16.797Z,97033.83
2019-01-03T23:09:48.344Z,97029.80
2019-01-03T23:12:19.789Z,97036.80
2019-01-03T23:14:51.263Z,97037.06
2019-01-03T23:17:22.703Z,97032.24
2019-01-03T23:19:54.171Z,97028.07
2019-01-03T23:22:25.605Z,97037.83
2019-01-03T23:24:57.156Z,97037.68
2019-01-03T23:27:28.656Z,97030.68
2019-01-03T23:30:00.176Z,97035.67
2019-01-03T23:32:31.679Z,97035.08
2019-01-03T23:35:03.323Z,97039.39
2019-01-03T23:37:34.749Z,97037.83
2019-01-03T23:40:07.415Z,97039.67
2019-01-03T23:42:38.856Z,97041.80
2019-01-03T23:45:32.316Z,97044.57
2019-01-03T23:48:04.107Z,97048.66
2019-01-03T23:50:37.022Z,97044.55
2019-01-03T23:53:08.479Z,97041.94
2019-01-03T23:55:45.870Z,97041.75
2019-01-03T23:58:17.201Z,97040.61
